createdAt,value
2018-09-30T00:02:13.031Z,68.67
2018-09-30T00:04:42.475Z,67.61
2018-09-30T00:07:11.919Z,67.79
2018-09-30T00:09:41.290Z,68.22
2018-09-30T00:12:11.003Z,68.13
2018-09-30T00:14:40.318Z,69.37
2018-09-30T00:17:09.632Z,68.75
2018-09-30T00:19:39.043Z,68.80
2018-09-30T00:22:08.401Z,68.32
2018-09-30T00:24:43.120Z,67.89
2018-09-30T00:27:17.604Z,67.87
2018-09-30T00:29:47.403Z,68.71
2018-09-30T00:32:18.796Z,68.30
2018-09-30T00:34:48.236Z,68.70
2018-09-30T00:37:18.936Z,67.87
2018-09-30T00:39:48.406Z,67.76
2018-09-30T00:42:18.120Z,68.16
2018-09-30T00:44:47.448Z,68.31
2018-09-30T00:47:16.836Z,67.37
2018-09-30T00:49:46.769Z,66.89
2018-09-30T00:52:16.138Z,67.04
2018-09-30T00:54:45.554Z,68.18
2018-09-30T00:57:15.081Z,67.60
2018-09-30T00:59:44.590Z,67.02
2018-09-30T01:02:14.123Z,67.63
2018-09-30T01:04:43.665Z,67.38
2018-09-30T01:07:13.113Z,66.78
2018-09-30T01:09:42.675Z,67.40
2018-09-30T01:12:12.166Z,67.56
2018-09-30T01:14:41.473Z,66.95
2018-09-30T01:17:10.814Z,66.66
2018-09-30T01:19:40.294Z,66.19
2018-09-30T01:22:09.909Z,65.59
2018-09-30T01:24:40.613Z,67.37
2018-09-30T01:27:10.127Z,67.51
2018-09-30T01:29:39.600Z,67.17
2018-09-30T01:32:08.912Z,66.89
2018-09-30T01:34:38.546Z,66.58
2018-09-30T01:37:07.907Z,66.63
2018-09-30T01:39:37.239Z,67.35
2018-09-30T01:42:06.784Z,66.43
2018-09-30T01:44:36.113Z,67.09
2018-09-30T01:47:05.401Z,66.62
2018-09-30T01:49:34.814Z,66.41
2018-09-30T01:52:21.146Z,66.64
2018-09-30T01:54:51.155Z,66.69
2018-09-30T01:57:20.690Z,66.27
2018-09-30T01:59:50.075Z,66.66
2018-09-30T02:02:19.393Z,67.28
2018-09-30T02:04:48.689Z,67.93
2018-09-30T02:07:18.028Z,67.25
2018-09-30T02:09:47.323Z,67.45
2018-09-30T02:12:17.626Z,67.78
2018-09-30T02:14:46.923Z,68.47
2018-09-30T02:17:16.487Z,68.58
2018-09-30T02:19:46.063Z,67.33
2018-09-30T02:22:15.377Z,67.55
2018-09-30T02:24:44.886Z,67.06
2018-09-30T02:27:14.274Z,67.06
2018-09-30T02:29:43.584Z,67.87
2018-09-30T02:32:12.954Z,68.40
2018-09-30T02:34:42.455Z,68.60
2018-09-30T02:37:11.806Z,68.53
2018-09-30T02:39:41.594Z,68.21
2018-09-30T02:42:11.709Z,68.11
2018-09-30T02:44:41.204Z,68.37
2018-09-30T02:47:10.841Z,68.45
2018-09-30T02:49:40.696Z,67.80
2018-09-30T02:52:10.315Z,68.50
2018-09-30T02:54:39.803Z,67.95
2018-09-30T02:57:09.198Z,68.42
2018-09-30T02:59:38.540Z,68.44
2018-09-30T03:02:08.378Z,68.05
2018-09-30T03:04:37.679Z,69.05
2018-09-30T03:07:12.415Z,68.43
2018-09-30T03:09:43.116Z,68.35
2018-09-30T03:12:12.750Z,67.75
2018-09-30T03:14:42.175Z,68.04
2018-09-30T03:17:11.528Z,69.60
2018-09-30T03:19:40.841Z,70.64
2018-09-30T03:22:10.432Z,70.61
2018-09-30T03:24:39.846Z,70.61
2018-09-30T03:27:09.175Z,69.58
2018-09-30T03:29:38.598Z,70.09
2018-09-30T03:32:07.862Z,70.93
2018-09-30T03:34:37.210Z,70.61
2018-09-30T03:37:06.620Z,70.28
2018-09-30T03:39:35.980Z,69.93
2018-09-30T03:42:05.311Z,71.43
2018-09-30T03:44:34.873Z,71.33
2018-09-30T03:47:04.288Z,71.44
2018-09-30T03:49:33.687Z,71.43
2018-09-30T03:52:03.061Z,71.94
2018-09-30T03:54:32.431Z,72.20
2018-09-30T03:57:01.842Z,72.99
2018-09-30T03:59:31.231Z,71.59
2018-09-30T04:02:00.589Z,71.58
2018-09-30T04:04:29.888Z,72.13
2018-09-30T04:06:59.371Z,71.81
2018-09-30T04:09:28.763Z,71.47
2018-09-30T04:11:58.284Z,71.90
2018-09-30T04:14:27.648Z,72.27
2018-09-30T04:16:57.077Z,72.08
2018-09-30T04:19:26.455Z,71.31
2018-09-30T04:21:55.841Z,70.78
2018-09-30T04:24:25.172Z,70.25
2018-09-30T04:26:54.556Z,70.84
2018-09-30T04:29:24.167Z,70.20
2018-09-30T04:31:53.664Z,71.01
2018-09-30T04:34:23.039Z,71.00
2018-09-30T04:36:52.446Z,71.26
2018-09-30T04:39:21.745Z,71.42
2018-09-30T04:41:51.075Z,71.61
2018-09-30T04:44:20.737Z,71.56
2018-09-30T04:46:50.044Z,71.64
2018-09-30T04:49:19.349Z,72.22
2018-09-30T04:51:48.760Z,71.35
2018-09-30T04:54:18.142Z,71.81
2018-09-30T04:56:47.460Z,70.59
2018-09-30T04:59:16.804Z,72.05
2018-09-30T05:01:46.226Z,72.19
2018-09-30T05:04:15.865Z,72.25
2018-09-30T05:06:45.400Z,71.33
2018-09-30T05:09:14.738Z,70.51
2018-09-30T05:11:44.080Z,70.50
2018-09-30T05:14:14.056Z,69.93
2018-09-30T05:16:43.402Z,70.46
2018-09-30T05:19:12.786Z,70.99
2018-09-30T05:21:42.200Z,71.29
2018-09-30T05:24:11.573Z,70.89
2018-09-30T05:26:40.923Z,70.74
2018-09-30T05:29:10.377Z,70.23
2018-09-30T05:31:39.731Z,70.21
2018-09-30T05:34:09.068Z,70.65
2018-09-30T05:36:38.499Z,70.35
2018-09-30T05:39:10.305Z,69.83
2018-09-30T05:41:39.937Z,69.30
2018-09-30T05:44:10.444Z,68.40
2018-09-30T05:46:40.210Z,66.98
2018-09-30T05:49:09.814Z,65.83
2018-09-30T05:51:39.191Z,64.66
2018-09-30T05:54:08.615Z,63.85
2018-09-30T05:56:38.284Z,63.94
2018-09-30T05:59:07.705Z,65.00
2018-09-30T06:01:37.026Z,65.04
2018-09-30T06:04:06.509Z,64.94
2018-09-30T06:06:36.606Z,65.83
2018-09-30T06:09:11.300Z,66.16
2018-09-30T06:11:40.724Z,65.95
2018-09-30T06:14:10.347Z,65.37
2018-09-30T06:16:40.089Z,64.73
2018-09-30T06:19:09.544Z,61.54
2018-09-30T06:21:39.697Z,60.79
2018-09-30T06:24:09.924Z,59.17
2018-09-30T06:26:39.404Z,56.56
2018-09-30T06:29:09.440Z,55.04
2018-09-30T06:31:38.835Z,53.75
2018-09-30T06:34:08.308Z,54.33
2018-09-30T06:36:37.703Z,55.51
2018-09-30T06:39:10.188Z,55.89
2018-09-30T06:41:39.628Z,56.37
2018-09-30T06:44:09.478Z,58.19
2018-09-30T06:46:38.846Z,60.07
2018-09-30T06:49:08.744Z,59.91
2018-09-30T06:51:38.108Z,59.92
2018-09-30T06:54:07.508Z,60.55
2018-09-30T06:56:36.886Z,61.41
2018-09-30T06:59:06.302Z,61.72
2018-09-30T07:01:36.111Z,61.11
2018-09-30T07:04:05.499Z,59.93
2018-09-30T07:06:34.803Z,58.86
2018-09-30T07:09:04.823Z,58.63
2018-09-30T07:11:34.381Z,58.49
2018-09-30T07:14:03.944Z,58.70
2018-09-30T07:16:33.530Z,57.94
2018-09-30T07:19:03.093Z,55.75
2018-09-30T07:21:32.662Z,52.07
2018-09-30T07:24:02.311Z,48.86
2018-09-30T07:26:31.674Z,44.49
2018-09-30T07:29:01.051Z,41.39
2018-09-30T07:31:30.524Z,39.08
2018-09-30T07:33:59.881Z,37.00
2018-09-30T07:36:29.220Z,34.57
2018-09-30T07:38:58.627Z,35.16
2018-09-30T07:41:28.081Z,34.10
2018-09-30T07:43:57.423Z,32.96
2018-09-30T07:46:27.167Z,29.68
2018-09-30T07:48:57.005Z,26.74
2018-09-30T07:51:26.486Z,26.83
2018-09-30T07:53:55.900Z,26.07
2018-09-30T07:56:25.354Z,27.71
2018-09-30T07:58:54.724Z,26.75
2018-09-30T08:01:24.096Z,24.42
2018-09-30T08:03:53.402Z,24.23
2018-09-30T08:06:22.761Z,21.19
2018-09-30T08:08:52.138Z,21.93
2018-09-30T08:11:21.414Z,22.96
2018-09-30T08:13:50.705Z,21.87
2018-09-30T08:16:20.076Z,22.23
2018-09-30T08:18:49.359Z,21.25
2018-09-30T08:21:18.731Z,20.17
2018-09-30T08:23:48.129Z,20.32
2018-09-30T08:26:17.422Z,19.18
2018-09-30T08:28:46.937Z,20.52
2018-09-30T08:31:16.412Z,21.58
2018-09-30T08:33:45.790Z,21.97
2018-09-30T08:36:15.177Z,24.18
2018-09-30T08:38:44.579Z,23.49
2018-09-30T08:41:14.085Z,23.49
2018-09-30T08:43:44.188Z,21.19
2018-09-30T08:46:13.916Z,20.91
2018-09-30T08:48:43.398Z,19.12
2018-09-30T08:51:12.719Z,19.89
2018-09-30T08:53:42.646Z,19.34
2018-09-30T08:56:12.080Z,18.86
2018-09-30T08:58:41.367Z,20.93
2018-09-30T09:01:10.769Z,19.34
2018-09-30T09:03:40.246Z,17.40
2018-09-30T09:06:11.182Z,19.58
2018-09-30T09:08:42.051Z,19.13
2018-09-30T09:11:11.384Z,18.31
2018-09-30T09:13:40.761Z,16.60
2018-09-30T09:16:10.632Z,15.36
2018-09-30T09:18:40.198Z,14.90
2018-09-30T09:21:10.836Z,14.66
2018-09-30T09:23:40.901Z,16.70
2018-09-30T09:26:10.294Z,18.77
2018-09-30T09:28:39.730Z,18.67
2018-09-30T09:31:09.083Z,17.82
2018-09-30T09:33:41.427Z,15.62
2018-09-30T09:36:12.144Z,15.80
2018-09-30T09:38:41.515Z,14.99
2018-09-30T09:41:10.993Z,15.44
2018-09-30T09:43:40.579Z,14.45
2018-09-30T09:46:10.109Z,14.38
2018-09-30T09:48:40.468Z,13.93
2018-09-30T09:51:10.024Z,13.83
2018-09-30T09:53:39.436Z,13.57
2018-09-30T09:56:08.894Z,15.17
2018-09-30T09:58:38.589Z,16.93
2018-09-30T10:01:08.100Z,18.13
2018-09-30T10:03:37.423Z,16.88
2018-09-30T10:06:06.762Z,16.54
2018-09-30T10:08:36.351Z,14.68
2018-09-30T10:11:05.816Z,14.01
2018-09-30T10:13:35.207Z,15.55
2018-09-30T10:16:04.590Z,16.36
2018-09-30T10:18:34.845Z,16.55
2018-09-30T10:21:04.352Z,14.38
2018-09-30T10:23:33.779Z,14.13
2018-09-30T10:26:03.168Z,14.55
2018-09-30T10:28:32.606Z,14.76
2018-09-30T10:31:01.996Z,14.97
2018-09-30T10:33:31.509Z,15.10
2018-09-30T10:36:00.924Z,15.30
2018-09-30T10:38:31.193Z,13.87
2018-09-30T10:41:00.598Z,13.44
2018-09-30T10:43:30.267Z,16.67
2018-09-30T10:45:59.698Z,15.43
2018-09-30T10:48:29.065Z,14.16
2018-09-30T10:50:58.491Z,13.24
2018-09-30T10:53:27.968Z,12.71
2018-09-30T10:55:57.370Z,13.62
2018-09-30T10:58:29.527Z,13.53
2018-09-30T11:00:58.946Z,15.09
2018-09-30T11:03:28.787Z,14.90
2018-09-30T11:05:58.361Z,14.21
2018-09-30T11:08:27.674Z,14.31
2018-09-30T11:10:57.605Z,14.30
2018-09-30T11:13:27.012Z,15.21
2018-09-30T11:15:57.675Z,14.93
2018-09-30T11:18:27.020Z,14.88
2018-09-30T11:20:57.094Z,13.36
2018-09-30T11:23:26.480Z,12.07
2018-09-30T11:25:55.919Z,11.46
2018-09-30T11:28:25.935Z,12.69
2018-09-30T11:30:55.355Z,11.12
2018-09-30T11:33:24.674Z,12.81
2018-09-30T11:35:54.094Z,13.65
2018-09-30T11:38:23.509Z,12.00
2018-09-30T11:40:53.899Z,14.91
2018-09-30T11:43:23.604Z,16.68
2018-09-30T11:45:53.276Z,16.53
2018-09-30T11:48:22.615Z,16.53
2018-09-30T11:50:52.902Z,16.93
2018-09-30T11:53:22.224Z,17.85
2018-09-30T11:55:51.791Z,18.04
2018-09-30T11:58:21.518Z,19.34
2018-09-30T12:00:51.337Z,17.31
2018-09-30T12:03:20.679Z,17.75
2018-09-30T12:05:50.133Z,17.14
2018-09-30T12:08:19.689Z,17.36
2018-09-30T12:10:49.159Z,18.22
2018-09-30T12:13:19.517Z,20.13
2018-09-30T12:15:49.052Z,19.93
2018-09-30T12:18:18.424Z,21.20
2018-09-30T12:20:48.193Z,21.29
2018-09-30T12:23:17.753Z,21.12
2018-09-30T12:25:47.261Z,21.80
2018-09-30T12:28:16.723Z,22.26
2018-09-30T12:30:46.100Z,22.48
2018-09-30T12:33:15.422Z,22.03
2018-09-30T12:35:45.223Z,22.17
2018-09-30T12:38:14.572Z,21.77
2018-09-30T12:40:44.000Z,22.48
2018-09-30T12:43:13.414Z,24.44
2018-09-30T12:45:42.764Z,23.20
2018-09-30T12:48:12.153Z,22.96
2018-09-30T12:50:41.644Z,24.29
2018-09-30T12:53:11.007Z,24.36
2018-09-30T12:55:40.577Z,23.79
2018-09-30T12:58:10.170Z,24.94
2018-09-30T13:00:40.076Z,25.96
2018-09-30T13:03:09.548Z,24.43
2018-09-30T13:05:39.050Z,24.64
2018-09-30T13:08:08.459Z,23.97
2018-09-30T13:10:41.356Z,23.88
2018-09-30T13:13:11.338Z,25.15
2018-09-30T13:15:40.722Z,24.83
2018-09-30T13:18:10.877Z,25.40
2018-09-30T13:20:40.911Z,24.45
2018-09-30T13:23:10.285Z,23.05
2018-09-30T13:25:39.692Z,24.41
2018-09-30T13:28:09.126Z,25.23
2018-09-30T13:30:38.769Z,25.54
2018-09-30T13:33:08.340Z,25.78
2018-09-30T13:35:37.949Z,25.61
2018-09-30T13:38:07.330Z,25.14
2018-09-30T13:40:36.966Z,24.87
2018-09-30T13:43:06.465Z,24.59
2018-09-30T13:45:36.035Z,25.32
2018-09-30T13:48:05.462Z,25.05
2018-09-30T13:50:35.031Z,25.38
2018-09-30T13:53:04.432Z,25.30
2018-09-30T13:55:33.902Z,26.04
2018-09-30T13:58:03.230Z,26.26
2018-09-30T14:00:32.888Z,27.34
2018-09-30T14:03:02.626Z,27.75
2018-09-30T14:05:32.023Z,27.61
2018-09-30T14:08:01.538Z,28.28
2018-09-30T14:10:31.012Z,28.09
2018-09-30T14:13:00.382Z,27.83
2018-09-30T14:15:29.751Z,28.06
2018-09-30T14:17:59.154Z,27.67
2018-09-30T14:20:28.569Z,28.61
2018-09-30T14:22:58.019Z,28.82
2018-09-30T14:25:27.421Z,29.23
2018-09-30T14:27:56.946Z,29.26
2018-09-30T14:30:26.333Z,29.36
2018-09-30T14:32:57.209Z,29.54
2018-09-30T14:35:26.609Z,29.05
2018-09-30T14:37:55.939Z,29.21
2018-09-30T14:40:25.270Z,29.90
2018-09-30T14:42:55.194Z,30.08
2018-09-30T14:45:24.541Z,29.50
2018-09-30T14:47:54.212Z,30.43
2018-09-30T14:50:23.584Z,28.97
2018-09-30T14:52:53.796Z,28.73
2018-09-30T14:55:23.221Z,29.90
2018-09-30T14:57:52.791Z,29.04
2018-09-30T15:00:22.236Z,29.59
2018-09-30T15:02:51.651Z,30.54
2018-09-30T15:05:21.021Z,29.82
2018-09-30T15:07:50.452Z,29.57
2018-09-30T15:10:21.007Z,29.89
2018-09-30T15:12:50.438Z,30.94
2018-09-30T15:15:19.835Z,31.68
2018-09-30T15:17:49.257Z,31.84
2018-09-30T15:20:18.684Z,32.04
2018-09-30T15:22:48.986Z,32.34
2018-09-30T15:25:18.426Z,33.48
2018-09-30T15:27:47.831Z,32.92
2018-09-30T15:30:17.128Z,32.65
2018-09-30T15:32:46.635Z,33.28
2018-09-30T15:35:16.045Z,33.86
2018-09-30T15:37:45.443Z,33.59
2018-09-30T15:40:15.067Z,33.03
2018-09-30T15:42:44.493Z,33.95
2018-09-30T15:45:13.892Z,33.46
2018-09-30T15:47:43.417Z,34.18
2018-09-30T15:50:12.769Z,33.98
2018-09-30T15:52:42.152Z,35.40
2018-09-30T15:55:11.784Z,35.09
2018-09-30T15:57:41.436Z,35.44
2018-09-30T16:00:10.871Z,34.71
2018-09-30T16:02:40.392Z,35.48
2018-09-30T16:05:09.819Z,34.98
2018-09-30T16:07:39.290Z,35.54
2018-09-30T16:10:08.377Z,35.65
2018-09-30T16:12:37.747Z,36.12
2018-09-30T16:15:08.519Z,35.15
2018-09-30T16:17:37.953Z,35.38
2018-09-30T16:20:07.317Z,36.02
2018-09-30T16:22:36.672Z,36.86
2018-09-30T16:25:06.182Z,36.52
2018-09-30T16:27:35.701Z,36.40
2018-09-30T16:30:05.453Z,35.95
2018-09-30T16:32:34.949Z,36.97
2018-09-30T16:35:04.341Z,36.76
2018-09-30T16:37:33.750Z,36.09
2018-09-30T16:40:03.195Z,36.52
2018-09-30T16:42:32.715Z,37.54
2018-09-30T16:45:02.135Z,37.96
2018-09-30T16:47:32.761Z,37.18
2018-09-30T16:50:02.225Z,37.33
2018-09-30T16:52:31.866Z,38.05
2018-09-30T16:55:01.331Z,37.68
2018-09-30T16:57:30.750Z,37.46
2018-09-30T17:00:00.094Z,37.10
2018-09-30T17:02:29.876Z,37.51
2018-09-30T17:04:59.316Z,37.60
2018-09-30T17:07:29.212Z,37.69
2018-09-30T17:09:58.901Z,37.85
2018-09-30T17:12:28.523Z,38.24
2018-09-30T17:14:58.539Z,38.59
2018-09-30T17:17:27.955Z,39.22
2018-09-30T17:19:57.298Z,39.78
2018-09-30T17:22:28.220Z,40.24
2018-09-30T17:24:59.936Z,40.49
2018-09-30T17:27:29.659Z,41.19
2018-09-30T17:29:59.180Z,41.02
2018-09-30T17:32:31.187Z,41.28
2018-09-30T17:35:00.659Z,41.16
2018-09-30T17:37:30.393Z,40.94
2018-09-30T17:40:00.010Z,41.06
2018-09-30T17:42:29.604Z,40.89
2018-09-30T17:44:59.396Z,40.94
2018-09-30T17:47:29.024Z,41.78
2018-09-30T17:49:58.617Z,40.89
2018-09-30T17:52:28.182Z,40.65
2018-09-30T17:54:57.754Z,40.96
2018-09-30T17:57:27.436Z,40.34
2018-09-30T17:59:56.920Z,41.35
2018-09-30T18:02:27.100Z,41.11
2018-09-30T18:04:56.500Z,42.12
2018-09-30T18:07:25.977Z,40.98
2018-09-30T18:09:55.453Z,41.14
2018-09-30T18:12:26.890Z,41.37
2018-09-30T18:14:56.306Z,40.87
2018-09-30T18:17:26.047Z,42.56
2018-09-30T18:19:55.536Z,41.29
2018-09-30T18:22:25.310Z,43.00
2018-09-30T18:24:54.955Z,44.28
2018-09-30T18:27:25.260Z,45.51
2018-09-30T18:29:54.741Z,46.00
2018-09-30T18:32:24.886Z,46.52
2018-09-30T18:34:54.353Z,46.87
2018-09-30T18:37:23.807Z,47.96
2018-09-30T18:39:53.181Z,47.66
2018-09-30T18:42:22.791Z,47.82
2018-09-30T18:44:52.256Z,46.37
2018-09-30T18:47:29.825Z,46.66
2018-09-30T18:49:59.295Z,47.04
2018-09-30T18:52:29.212Z,47.54
2018-09-30T18:54:58.707Z,47.39
2018-09-30T18:57:28.156Z,47.61
2018-09-30T18:59:57.609Z,48.00
2018-09-30T19:02:27.228Z,47.62
2018-09-30T19:04:56.672Z,47.56
2018-09-30T19:07:26.232Z,48.28
2018-09-30T19:09:55.821Z,47.94
2018-09-30T19:12:25.243Z,47.99
2018-09-30T19:14:54.853Z,48.39
2018-09-30T19:17:24.372Z,48.66
2018-09-30T19:19:54.142Z,48.66
2018-09-30T19:22:24.566Z,48.70
2018-09-30T19:24:54.005Z,48.88
2018-09-30T19:27:23.633Z,49.28
2018-09-30T19:29:53.410Z,49.68
2018-09-30T19:32:22.929Z,49.60
2018-09-30T19:34:52.679Z,49.75
2018-09-30T19:37:22.366Z,49.80
2018-09-30T19:39:51.861Z,50.71
2018-09-30T19:42:21.527Z,50.57
2018-09-30T19:44:51.149Z,51.10
2018-09-30T19:47:21.220Z,50.88
2018-09-30T19:49:50.781Z,50.53
2018-09-30T19:52:20.694Z,51.83
2018-09-30T19:54:51.259Z,51.62
2018-09-30T19:57:21.301Z,51.36
2018-09-30T19:59:50.998Z,51.39
2018-09-30T20:02:20.501Z,51.44
2018-09-30T20:04:50.097Z,51.83
2018-09-30T20:07:20.310Z,52.27
2018-09-30T20:09:49.678Z,52.62
2018-09-30T20:12:19.433Z,52.98
2018-09-30T20:14:48.998Z,53.27
2018-09-30T20:17:18.531Z,53.59
2018-09-30T20:19:47.991Z,54.14
2018-09-30T20:22:17.529Z,53.78
2018-09-30T20:24:47.160Z,53.58
2018-09-30T20:27:16.612Z,53.81
2018-09-30T20:29:46.128Z,54.44
2018-09-30T20:32:15.645Z,54.64
2018-09-30T20:34:45.772Z,54.00
2018-09-30T20:37:16.429Z,54.66
2018-09-30T20:39:47.329Z,55.29
2018-09-30T20:42:17.197Z,54.56
2018-09-30T20:44:46.611Z,54.10
2018-09-30T20:47:16.296Z,54.27
2018-09-30T20:49:45.895Z,54.34
2018-09-30T20:52:15.463Z,54.05
2018-09-30T20:54:46.127Z,54.25
2018-09-30T20:57:15.804Z,52.87
2018-09-30T20:59:45.361Z,52.36
2018-09-30T21:02:14.819Z,52.16
2018-09-30T21:04:44.600Z,51.97
2018-09-30T21:07:14.077Z,51.76
2018-09-30T21:09:43.576Z,51.89
2018-09-30T21:12:13.012Z,51.61
2018-09-30T21:14:42.407Z,51.66
2018-09-30T21:17:11.888Z,51.89
2018-09-30T21:19:41.242Z,52.54
2018-09-30T21:22:10.850Z,52.45
2018-09-30T21:24:40.304Z,51.93
2018-09-30T21:27:09.705Z,52.04
2018-09-30T21:29:39.032Z,52.18
2018-09-30T21:32:08.468Z,53.32
2018-09-30T21:34:37.842Z,53.39
2018-09-30T21:37:07.300Z,53.03
2018-09-30T21:39:36.769Z,53.39
2018-09-30T21:42:06.208Z,54.23
2018-09-30T21:44:35.609Z,54.54
2018-09-30T21:47:05.312Z,54.33
2018-09-30T21:49:34.759Z,53.89
2018-09-30T21:52:04.160Z,54.43
2018-09-30T21:54:33.672Z,55.04
2018-09-30T21:57:03.291Z,55.86
2018-09-30T21:59:32.681Z,55.86
2018-09-30T22:02:02.609Z,56.43
2018-09-30T22:04:32.003Z,56.84
2018-09-30T22:07:01.426Z,57.30
2018-09-30T22:09:31.697Z,57.16
2018-09-30T22:12:01.051Z,57.55
2018-09-30T22:14:30.449Z,57.50
2018-09-30T22:16:59.970Z,57.44
2018-09-30T22:19:29.402Z,57.22
2018-09-30T22:21:58.869Z,57.40
2018-09-30T22:24:29.066Z,57.86
2018-09-30T22:26:58.513Z,58.12
2018-09-30T22:29:27.921Z,58.73
2018-09-30T22:31:57.340Z,58.87
2018-09-30T22:34:26.771Z,59.03
2018-09-30T22:36:57.119Z,59.25
2018-09-30T22:39:26.596Z,59.67
2018-09-30T22:41:55.920Z,59.79
2018-09-30T22:44:25.436Z,59.49
2018-09-30T22:46:54.877Z,60.15
2018-09-30T22:49:24.251Z,60.70
2018-09-30T22:51:53.637Z,61.06
2018-09-30T22:54:23.002Z,60.96
2018-09-30T22:56:52.381Z,60.85
2018-09-30T22:59:21.914Z,60.61
2018-09-30T23:01:51.388Z,60.03
2018-09-30T23:04:22.292Z,60.04
2018-09-30T23:06:53.838Z,60.56
2018-09-30T23:09:23.237Z,60.41
2018-09-30T23:11:52.709Z,60.42
2018-09-30T23:14:22.181Z,61.05
2018-09-30T23:16:51.519Z,60.97
2018-09-30T23:19:20.856Z,60.73
2018-09-30T23:22:04.671Z,61.07
2018-09-30T23:24:34.564Z,61.03
2018-09-30T23:27:04.110Z,60.64
2018-09-30T23:29:35.220Z,60.54
2018-09-30T23:32:04.587Z,61.73
2018-09-30T23:34:34.815Z,61.69
2018-09-30T23:37:04.174Z,62.25
2018-09-30T23:39:33.592Z,61.00
2018-09-30T23:42:02.864Z,60.70
2018-09-30T23:44:33.179Z,60.65
2018-09-30T23:47:02.678Z,60.54
2018-09-30T23:49:31.982Z,60.43
2018-09-30T23:52:02.787Z,61.01
2018-09-30T23:54:32.125Z,61.21
2018-09-30T23:57:01.402Z,61.08
2018-09-30T23:59:30.735Z,61.28
